sensor_id;sensor_type;location;lat;lon;timestamp;P1;durP1;ratioP1;P2;durP2;ratioP2
15082;SDS011;7640;53.116;6.878;2022-12-17T00:02:24;117.47;;;39.63;;
15082;SDS011;7640;53.116;6.878;2022-12-17T00:05:12;124.17;;;43.07;;
15082;SDS011;7640;53.116;6.878;2022-12-17T00:08:00;110.40;;;40.83;;
15082;SDS011;7640;53.116;6.878;2022-12-17T00:10:48;118.23;;;39.63;;
15082;SDS011;7640;53.116;6.878;2022-12-17T00:13:48;114.50;;;41.23;;
15082;SDS011;7640;53.116;6.878;2022-12-17T00:16:38;116.93;;;42.43;;
15082;SDS011;7640;53.116;6.878;2022-12-17T00:19:26;97.90;;;39.73;;
15082;SDS011;7640;53.116;6.878;2022-12-17T00:22:19;116.20;;;38.63;;
15082;SDS011;7640;53.116;6.878;2022-12-17T00:25:08;159.00;;;44.67;;
15082;SDS011;7640;53.116;6.878;2022-12-17T00:27:56;104.73;;;40.50;;
15082;SDS011;7640;53.116;6.878;2022-12-17T00:30:47;131.03;;;40.67;;
15082;SDS011;7640;53.116;6.878;2022-12-17T00:33:42;102.23;;;39.00;;
15082;SDS011;7640;53.116;6.878;2022-12-17T00:36:29;95.97;;;37.87;;
15082;SDS011;7640;53.116;6.878;2022-12-17T00:39:22;93.60;;;38.27;;
15082;SDS011;7640;53.116;6.878;2022-12-17T00:42:11;131.67;;;41.77;;
15082;SDS011;7640;53.116;6.878;2022-12-17T00:44:59;147.90;;;43.60;;
15082;SDS011;7640;53.116;6.878;2022-12-17T00:47:53;120.67;;;41.17;;
15082;SDS011;7640;53.116;6.878;2022-12-17T00:50:43;103.03;;;37.60;;
15082;SDS011;7640;53.116;6.878;2022-12-17T00:53:32;114.27;;;41.27;;
15082;SDS011;7640;53.116;6.878;2022-12-17T00:56:18;96.90;;;37.50;;
15082;SDS011;7640;53.116;6.878;2022-12-17T00:59:08;137.03;;;45.20;;
15082;SDS011;7640;53.116;6.878;2022-12-17T01:01:56;122.20;;;39.83;;
15082;SDS011;7640;53.116;6.878;2022-12-17T01:04:48;126.13;;;39.80;;
15082;SDS011;7640;53.116;6.878;2022-12-17T01:07:37;114.50;;;38.50;;
15082;SDS011;7640;53.116;6.878;2022-12-17T01:10:25;102.37;;;39.13;;
15082;SDS011;7640;53.116;6.878;2022-12-17T01:13:15;112.00;;;38.97;;
15082;SDS011;7640;53.116;6.878;2022-12-17T01:16:06;112.80;;;40.20;;
15082;SDS011;7640;53.116;6.878;2022-12-17T01:19:00;97.40;;;35.17;;
15082;SDS011;7640;53.116;6.878;2022-12-17T01:21:50;107.17;;;35.70;;
15082;SDS011;7640;53.116;6.878;2022-12-17T01:24:39;104.53;;;35.07;;
15082;SDS011;7640;53.116;6.878;2022-12-17T01:27:28;114.70;;;37.30;;
15082;SDS011;7640;53.116;6.878;2022-12-17T01:30:16;123.17;;;38.37;;
15082;SDS011;7640;53.116;6.878;2022-12-17T01:33:06;116.90;;;38.03;;
15082;SDS011;7640;53.116;6.878;2022-12-17T01:35:59;110.80;;;35.70;;
15082;SDS011;7640;53.116;6.878;2022-12-17T01:38:51;105.43;;;36.80;;
15082;SDS011;7640;53.116;6.878;2022-12-17T01:41:41;108.50;;;35.10;;
15082;SDS011;7640;53.116;6.878;2022-12-17T01:47:41;129.83;;;39.43;;
15082;SDS011;7640;53.116;6.878;2022-12-17T01:50:35;121.83;;;37.13;;
15082;SDS011;7640;53.116;6.878;2022-12-17T01:53:28;132.53;;;38.73;;
15082;SDS011;7640;53.116;6.878;2022-12-17T01:56:32;121.80;;;37.60;;
15082;SDS011;7640;53.116;6.878;2022-12-17T01:59:23;128.67;;;38.80;;
15082;SDS011;7640;53.116;6.878;2022-12-17T02:02:22;117.83;;;37.47;;
15082;SDS011;7640;53.116;6.878;2022-12-17T02:05:09;126.53;;;37.87;;
15082;SDS011;7640;53.116;6.878;2022-12-17T02:08:00;133.27;;;40.47;;
15082;SDS011;7640;53.116;6.878;2022-12-17T02:14:18;119.80;;;36.00;;
15082;SDS011;7640;53.116;6.878;2022-12-17T02:17:28;99.80;;;31.90;;
15082;SDS011;7640;53.116;6.878;2022-12-17T02:20:28;123.03;;;37.40;;
15082;SDS011;7640;53.116;6.878;2022-12-17T02:23:28;136.37;;;40.77;;
15082;SDS011;7640;53.116;6.878;2022-12-17T02:26:52;129.53;;;38.33;;
15082;SDS011;7640;53.116;6.878;2022-12-17T02:29:43;142.97;;;41.27;;
15082;SDS011;7640;53.116;6.878;2022-12-17T02:32:36;135.13;;;38.60;;
15082;SDS011;7640;53.116;6.878;2022-12-17T02:35:29;136.10;;;42.10;;
15082;SDS011;7640;53.116;6.878;2022-12-17T02:38:22;151.03;;;41.07;;
15082;SDS011;7640;53.116;6.878;2022-12-17T02:41:23;157.07;;;43.93;;
15082;SDS011;7640;53.116;6.878;2022-12-17T02:44:18;170.47;;;46.30;;
15082;SDS011;7640;53.116;6.878;2022-12-17T02:47:08;154.97;;;43.77;;
15082;SDS011;7640;53.116;6.878;2022-12-17T02:50:03;148.00;;;41.10;;
15082;SDS011;7640;53.116;6.878;2022-12-17T02:52:58;171.90;;;49.33;;
15082;SDS011;7640;53.116;6.878;2022-12-17T02:55:49;169.63;;;45.67;;
15082;SDS011;7640;53.116;6.878;2022-12-17T02:58:39;143.67;;;42.47;;
15082;SDS011;7640;53.116;6.878;2022-12-17T03:01:46;173.00;;;46.80;;
15082;SDS011;7640;53.116;6.878;2022-12-17T03:04:35;168.30;;;46.00;;
15082;SDS011;7640;53.116;6.878;2022-12-17T03:07:51;146.83;;;41.00;;
15082;SDS011;7640;53.116;6.878;2022-12-17T03:10:41;143.87;;;42.27;;
15082;SDS011;7640;53.116;6.878;2022-12-17T03:13:30;153.03;;;45.07;;
15082;SDS011;7640;53.116;6.878;2022-12-17T03:16:22;162.43;;;44.67;;
15082;SDS011;7640;53.116;6.878;2022-12-17T03:19:12;148.57;;;44.97;;
15082;SDS011;7640;53.116;6.878;2022-12-17T03:21:58;154.23;;;45.13;;
15082;SDS011;7640;53.116;6.878;2022-12-17T03:24:47;141.73;;;43.83;;
15082;SDS011;7640;53.116;6.878;2022-12-17T03:27:36;142.50;;;42.87;;
15082;SDS011;7640;53.116;6.878;2022-12-17T03:30:26;145.73;;;45.00;;
15082;SDS011;7640;53.116;6.878;2022-12-17T03:33:16;145.80;;;41.70;;
15082;SDS011;7640;53.116;6.878;2022-12-17T03:36:10;144.90;;;43.80;;
15082;SDS011;7640;53.116;6.878;2022-12-17T03:39:01;138.67;;;41.60;;
15082;SDS011;7640;53.116;6.878;2022-12-17T03:41:51;136.13;;;40.23;;
15082;SDS011;7640;53.116;6.878;2022-12-17T03:44:47;153.83;;;40.50;;
15082;SDS011;7640;53.116;6.878;2022-12-17T03:47:36;143.30;;;41.10;;
15082;SDS011;7640;53.116;6.878;2022-12-17T03:50:39;137.53;;;38.17;;
15082;SDS011;7640;53.116;6.878;2022-12-17T03:53:31;139.53;;;41.13;;
15082;SDS011;7640;53.116;6.878;2022-12-17T03:56:19;126.50;;;38.87;;
15082;SDS011;7640;53.116;6.878;2022-12-17T03:59:06;127.07;;;37.67;;
15082;SDS011;7640;53.116;6.878;2022-12-17T04:01:54;130.13;;;39.33;;
15082;SDS011;7640;53.116;6.878;2022-12-17T04:04:48;124.83;;;38.53;;
15082;SDS011;7640;53.116;6.878;2022-12-17T04:07:51;130.17;;;37.87;;
15082;SDS011;7640;53.116;6.878;2022-12-17T04:10:42;127.90;;;37.73;;
15082;SDS011;7640;53.116;6.878;2022-12-17T04:13:31;131.83;;;38.30;;
15082;SDS011;7640;53.116;6.878;2022-12-17T04:16:32;136.03;;;38.83;;
15082;SDS011;7640;53.116;6.878;2022-12-17T04:19:26;138.27;;;39.43;;
15082;SDS011;7640;53.116;6.878;2022-12-17T04:22:18;131.37;;;38.30;;
15082;SDS011;7640;53.116;6.878;2022-12-17T04:25:06;125.07;;;35.03;;
15082;SDS011;7640;53.116;6.878;2022-12-17T04:28:04;137.97;;;39.70;;
15082;SDS011;7640;53.116;6.878;2022-12-17T04:30:52;148.67;;;40.03;;
15082;SDS011;7640;53.116;6.878;2022-12-17T04:33:41;143.60;;;40.03;;
15082;SDS011;7640;53.116;6.878;2022-12-17T04:36:27;139.73;;;39.50;;
15082;SDS011;7640;53.116;6.878;2022-12-17T04:39:15;120.40;;;37.87;;
15082;SDS011;7640;53.116;6.878;2022-12-17T04:42:08;130.43;;;40.73;;
15082;SDS011;7640;53.116;6.878;2022-12-17T04:48:06;122.27;;;35.20;;
15082;SDS011;7640;53.116;6.878;2022-12-17T04:50:54;99.20;;;32.63;;
15082;SDS011;7640;53.116;6.878;2022-12-17T04:53:46;105.53;;;34.13;;
15082;SDS011;7640;53.116;6.878;2022-12-17T04:56:36;107.80;;;35.10;;
15082;SDS011;7640;53.116;6.878;2022-12-17T04:59:24;124.73;;;36.03;;
15082;SDS011;7640;53.116;6.878;2022-12-17T05:02:14;118.20;;;34.40;;
15082;SDS011;7640;53.116;6.878;2022-12-17T05:05:10;116.77;;;34.87;;
15082;SDS011;7640;53.116;6.878;2022-12-17T05:07:58;115.73;;;36.13;;
15082;SDS011;7640;53.116;6.878;2022-12-17T05:10:47;115.93;;;36.37;;
15082;SDS011;7640;53.116;6.878;2022-12-17T05:13:38;130.33;;;40.17;;
15082;SDS011;7640;53.116;6.878;2022-12-17T05:16:40;108.27;;;32.57;;
15082;SDS011;7640;53.116;6.878;2022-12-17T05:19:33;112.67;;;34.33;;
15082;SDS011;7640;53.116;6.878;2022-12-17T05:22:24;121.47;;;36.47;;
15082;SDS011;7640;53.116;6.878;2022-12-17T05:25:11;111.23;;;36.07;;
15082;SDS011;7640;53.116;6.878;2022-12-17T05:28:01;120.20;;;38.37;;
15082;SDS011;7640;53.116;6.878;2022-12-17T05:30:51;111.63;;;37.57;;
15082;SDS011;7640;53.116;6.878;2022-12-17T05:33:41;106.63;;;35.67;;
15082;SDS011;7640;53.116;6.878;2022-12-17T05:36:35;111.37;;;37.83;;
15082;SDS011;7640;53.116;6.878;2022-12-17T05:39:24;118.43;;;38.37;;
15082;SDS011;7640;53.116;6.878;2022-12-17T05:42:31;112.07;;;37.70;;
15082;SDS011;7640;53.116;6.878;2022-12-17T05:45:23;93.63;;;33.00;;
15082;SDS011;7640;53.116;6.878;2022-12-17T05:48:14;104.93;;;35.90;;
15082;SDS011;7640;53.116;6.878;2022-12-17T05:51:05;114.77;;;39.67;;
15082;SDS011;7640;53.116;6.878;2022-12-17T05:54:06;109.60;;;36.23;;
15082;SDS011;7640;53.116;6.878;2022-12-17T05:56:59;114.57;;;37.73;;
15082;SDS011;7640;53.116;6.878;2022-12-17T05:59:49;116.00;;;38.03;;
15082;SDS011;7640;53.116;6.878;2022-12-17T06:02:37;104.23;;;33.67;;
15082;SDS011;7640;53.116;6.878;2022-12-17T06:05:33;108.87;;;35.97;;
15082;SDS011;7640;53.116;6.878;2022-12-17T06:08:22;112.07;;;37.67;;
15082;SDS011;7640;53.116;6.878;2022-12-17T06:11:22;121.40;;;40.50;;
15082;SDS011;7640;53.116;6.878;2022-12-17T06:14:32;115.73;;;39.13;;
15082;SDS011;7640;53.116;6.878;2022-12-17T06:17:31;107.87;;;37.70;;
15082;SDS011;7640;53.116;6.878;2022-12-17T06:20:29;116.33;;;39.30;;
15082;SDS011;7640;53.116;6.878;2022-12-17T06:23:24;105.63;;;38.43;;
15082;SDS011;7640;53.116;6.878;2022-12-17T06:26:33;105.20;;;38.40;;
15082;SDS011;7640;53.116;6.878;2022-12-17T06:29:19;114.23;;;38.97;;
15082;SDS011;7640;53.116;6.878;2022-12-17T06:32:10;104.03;;;37.20;;
15082;SDS011;7640;53.116;6.878;2022-12-17T06:34:59;123.40;;;42.00;;
15082;SDS011;7640;53.116;6.878;2022-12-17T06:37:56;107.03;;;36.97;;
15082;SDS011;7640;53.116;6.878;2022-12-17T06:40:47;109.47;;;37.80;;
15082;SDS011;7640;53.116;6.878;2022-12-17T06:43:37;98.23;;;36.07;;
15082;SDS011;7640;53.116;6.878;2022-12-17T06:46:26;114.07;;;39.67;;
15082;SDS011;7640;53.116;6.878;2022-12-17T06:49:15;112.27;;;42.30;;
15082;SDS011;7640;53.116;6.878;2022-12-17T06:52:06;104.20;;;38.03;;
15082;SDS011;7640;53.116;6.878;2022-12-17T06:54:56;106.87;;;38.93;;
15082;SDS011;7640;53.116;6.878;2022-12-17T06:57:47;102.50;;;38.00;;
15082;SDS011;7640;53.116;6.878;2022-12-17T07:00:46;114.77;;;41.23;;
15082;SDS011;7640;53.116;6.878;2022-12-17T07:03:37;111.67;;;38.63;;
15082;SDS011;7640;53.116;6.878;2022-12-17T07:06:38;118.33;;;40.00;;
15082;SDS011;7640;53.116;6.878;2022-12-17T07:09:28;118.60;;;40.07;;
15082;SDS011;7640;53.116;6.878;2022-12-17T07:12:20;116.77;;;39.53;;
15082;SDS011;7640;53.116;6.878;2022-12-17T07:15:09;117.57;;;39.47;;
15082;SDS011;7640;53.116;6.878;2022-12-17T07:18:08;107.03;;;37.43;;
15082;SDS011;7640;53.116;6.878;2022-12-17T07:20:59;116.73;;;38.70;;
15082;SDS011;7640;53.116;6.878;2022-12-17T07:23:46;108.63;;;38.90;;
15082;SDS011;7640;53.116;6.878;2022-12-17T07:26:32;107.27;;;35.30;;
15082;SDS011;7640;53.116;6.878;2022-12-17T07:29:27;102.10;;;35.77;;
15082;SDS011;7640;53.116;6.878;2022-12-17T07:32:14;107.43;;;38.57;;
15082;SDS011;7640;53.116;6.878;2022-12-17T07:35:14;100.50;;;34.17;;
15082;SDS011;7640;53.116;6.878;2022-12-17T07:38:03;105.43;;;36.27;;
15082;SDS011;7640;53.116;6.878;2022-12-17T07:40:54;117.43;;;39.17;;
15082;SDS011;7640;53.116;6.878;2022-12-17T07:43:43;111.70;;;38.97;;
15082;SDS011;7640;53.116;6.878;2022-12-17T07:46:33;123.57;;;39.60;;
15082;SDS011;7640;53.116;6.878;2022-12-17T07:49:22;111.07;;;36.83;;
15082;SDS011;7640;53.116;6.878;2022-12-17T07:52:16;119.40;;;39.50;;
15082;SDS011;7640;53.116;6.878;2022-12-17T07:55:05;135.10;;;42.50;;
15082;SDS011;7640;53.116;6.878;2022-12-17T07:58:00;125.20;;;40.67;;
15082;SDS011;7640;53.116;6.878;2022-12-17T08:00:50;119.63;;;39.10;;
15082;SDS011;7640;53.116;6.878;2022-12-17T08:03:42;104.67;;;34.90;;
15082;SDS011;7640;53.116;6.878;2022-12-17T08:06:36;120.83;;;39.43;;
15082;SDS011;7640;53.116;6.878;2022-12-17T08:09:34;131.57;;;40.43;;
15082;SDS011;7640;53.116;6.878;2022-12-17T08:12:24;134.60;;;39.33;;
15082;SDS011;7640;53.116;6.878;2022-12-17T08:15:09;115.70;;;37.80;;
15082;SDS011;7640;53.116;6.878;2022-12-17T08:17:58;121.60;;;37.77;;
15082;SDS011;7640;53.116;6.878;2022-12-17T08:20:51;132.40;;;40.57;;
15082;SDS011;7640;53.116;6.878;2022-12-17T08:23:37;130.67;;;39.50;;
15082;SDS011;7640;53.116;6.878;2022-12-17T08:26:24;123.60;;;38.13;;
15082;SDS011;7640;53.116;6.878;2022-12-17T08:29:13;130.63;;;38.73;;
15082;SDS011;7640;53.116;6.878;2022-12-17T08:31:59;106.47;;;30.80;;
15082;SDS011;7640;53.116;6.878;2022-12-17T08:34:45;116.17;;;34.23;;
15082;SDS011;7640;53.116;6.878;2022-12-17T08:37:31;110.60;;;32.70;;
15082;SDS011;7640;53.116;6.878;2022-12-17T08:40:16;106.97;;;31.10;;
15082;SDS011;7640;53.116;6.878;2022-12-17T08:43:04;131.73;;;37.67;;
15082;SDS011;7640;53.116;6.878;2022-12-17T08:45:50;115.90;;;34.73;;
15082;SDS011;7640;53.116;6.878;2022-12-17T08:48:37;107.23;;;32.13;;
15082;SDS011;7640;53.116;6.878;2022-12-17T08:51:23;110.13;;;34.90;;
15082;SDS011;7640;53.116;6.878;2022-12-17T08:54:09;109.27;;;33.77;;
15082;SDS011;7640;53.116;6.878;2022-12-17T08:56:55;114.83;;;33.87;;
15082;SDS011;7640;53.116;6.878;2022-12-17T08:59:57;97.60;;;31.10;;
15082;SDS011;7640;53.116;6.878;2022-12-17T09:02:44;116.27;;;33.17;;
15082;SDS011;7640;53.116;6.878;2022-12-17T09:05:30;100.87;;;31.43;;
15082;SDS011;7640;53.116;6.878;2022-12-17T09:08:16;121.10;;;33.73;;
15082;SDS011;7640;53.116;6.878;2022-12-17T09:11:01;109.17;;;33.03;;
15082;SDS011;7640;53.116;6.878;2022-12-17T09:13:56;110.97;;;32.60;;
15082;SDS011;7640;53.116;6.878;2022-12-17T09:16:43;109.53;;;33.20;;
15082;SDS011;7640;53.116;6.878;2022-12-17T09:19:29;112.10;;;33.27;;
15082;SDS011;7640;53.116;6.878;2022-12-17T09:22:15;111.07;;;33.73;;
15082;SDS011;7640;53.116;6.878;2022-12-17T09:25:01;120.10;;;33.93;;
15082;SDS011;7640;53.116;6.878;2022-12-17T09:27:47;106.43;;;33.47;;
15082;SDS011;7640;53.116;6.878;2022-12-17T09:30:33;116.47;;;35.90;;
15082;SDS011;7640;53.116;6.878;2022-12-17T09:33:20;126.23;;;36.13;;
15082;SDS011;7640;53.116;6.878;2022-12-17T09:36:06;117.70;;;35.30;;
15082;SDS011;7640;53.116;6.878;2022-12-17T09:38:53;126.13;;;38.10;;
15082;SDS011;7640;53.116;6.878;2022-12-17T09:41:41;118.00;;;33.93;;
15082;SDS011;7640;53.116;6.878;2022-12-17T09:44:39;112.27;;;34.23;;
15082;SDS011;7640;53.116;6.878;2022-12-17T09:47:35;97.23;;;31.70;;
15082;SDS011;7640;53.116;6.878;2022-12-17T09:50:29;103.03;;;34.23;;
15082;SDS011;7640;53.116;6.878;2022-12-17T09:53:17;101.43;;;32.73;;
15082;SDS011;7640;53.116;6.878;2022-12-17T09:56:08;122.20;;;35.83;;
15082;SDS011;7640;53.116;6.878;2022-12-17T09:58:56;112.50;;;32.50;;
15082;SDS011;7640;53.116;6.878;2022-12-17T10:01:42;126.70;;;35.83;;
15082;SDS011;7640;53.116;6.878;2022-12-17T10:04:31;111.77;;;35.13;;
15082;SDS011;7640;53.116;6.878;2022-12-17T10:07:34;105.73;;;32.20;;
15082;SDS011;7640;53.116;6.878;2022-12-17T10:10:24;100.13;;;33.73;;
15082;SDS011;7640;53.116;6.878;2022-12-17T10:13:14;115.20;;;35.67;;
15082;SDS011;7640;53.116;6.878;2022-12-17T10:16:10;100.90;;;33.87;;
15082;SDS011;7640;53.116;6.878;2022-12-17T10:19:05;99.83;;;33.23;;
15082;SDS011;7640;53.116;6.878;2022-12-17T10:22:05;115.93;;;38.37;;
15082;SDS011;7640;53.116;6.878;2022-12-17T10:24:54;118.07;;;37.70;;
15082;SDS011;7640;53.116;6.878;2022-12-17T10:27:40;121.20;;;37.17;;
15082;SDS011;7640;53.116;6.878;2022-12-17T10:30:41;107.23;;;37.10;;
15082;SDS011;7640;53.116;6.878;2022-12-17T10:33:27;116.97;;;39.30;;
15082;SDS011;7640;53.116;6.878;2022-12-17T10:36:21;105.07;;;33.93;;
15082;SDS011;7640;53.116;6.878;2022-12-17T10:39:14;116.33;;;40.37;;
15082;SDS011;7640;53.116;6.878;2022-12-17T10:42:16;114.20;;;36.83;;
15082;SDS011;7640;53.116;6.878;2022-12-17T10:45:19;111.30;;;36.60;;
15082;SDS011;7640;53.116;6.878;2022-12-17T10:48:18;121.77;;;38.43;;
15082;SDS011;7640;53.116;6.878;2022-12-17T10:51:15;117.13;;;38.43;;
15082;SDS011;7640;53.116;6.878;2022-12-17T10:54:13;112.30;;;37.97;;
15082;SDS011;7640;53.116;6.878;2022-12-17T10:57:19;103.60;;;35.57;;
15082;SDS011;7640;53.116;6.878;2022-12-17T11:00:17;109.90;;;40.03;;
15082;SDS011;7640;53.116;6.878;2022-12-17T11:03:22;98.07;;;36.10;;
15082;SDS011;7640;53.116;6.878;2022-12-17T11:06:17;116.13;;;38.43;;
15082;SDS011;7640;53.116;6.878;2022-12-17T11:09:32;111.83;;;41.53;;
15082;SDS011;7640;53.116;6.878;2022-12-17T11:12:35;132.90;;;48.07;;
15082;SDS011;7640;53.116;6.878;2022-12-17T11:15:28;114.00;;;40.20;;
15082;SDS011;7640;53.116;6.878;2022-12-17T11:18:21;97.40;;;35.47;;
15082;SDS011;7640;53.116;6.878;2022-12-17T11:21:14;108.07;;;39.13;;
15082;SDS011;7640;53.116;6.878;2022-12-17T11:24:07;101.80;;;37.97;;
15082;SDS011;7640;53.116;6.878;2022-12-17T11:26:58;109.00;;;40.20;;
15082;SDS011;7640;53.116;6.878;2022-12-17T11:29:49;99.30;;;37.70;;
15082;SDS011;7640;53.116;6.878;2022-12-17T11:35:49;99.63;;;36.20;;
15082;SDS011;7640;53.116;6.878;2022-12-17T11:38:44;106.33;;;38.17;;
15082;SDS011;7640;53.116;6.878;2022-12-17T11:41:43;103.90;;;38.23;;
15082;SDS011;7640;53.116;6.878;2022-12-17T11:44:40;106.63;;;41.33;;
15082;SDS011;7640;53.116;6.878;2022-12-17T11:47:39;97.10;;;34.83;;
15082;SDS011;7640;53.116;6.878;2022-12-17T11:50:32;103.57;;;37.90;;
15082;SDS011;7640;53.116;6.878;2022-12-17T11:53:34;108.23;;;39.80;;
15082;SDS011;7640;53.116;6.878;2022-12-17T11:56:34;103.73;;;37.77;;
15082;SDS011;7640;53.116;6.878;2022-12-17T11:59:25;91.20;;;35.13;;
15082;SDS011;7640;53.116;6.878;2022-12-17T12:02:27;103.00;;;38.13;;
15082;SDS011;7640;53.116;6.878;2022-12-17T12:05:30;100.97;;;38.47;;
15082;SDS011;7640;53.116;6.878;2022-12-17T12:08:28;90.90;;;35.23;;
15082;SDS011;7640;53.116;6.878;2022-12-17T12:11:20;100.07;;;38.13;;
15082;SDS011;7640;53.116;6.878;2022-12-17T12:14:19;95.10;;;36.80;;
15082;SDS011;7640;53.116;6.878;2022-12-17T12:17:23;100.53;;;37.20;;
15082;SDS011;7640;53.116;6.878;2022-12-17T12:20:25;87.13;;;34.23;;
15082;SDS011;7640;53.116;6.878;2022-12-17T12:23:46;95.07;;;37.83;;
15082;SDS011;7640;53.116;6.878;2022-12-17T12:26:48;98.03;;;37.20;;
15082;SDS011;7640;53.116;6.878;2022-12-17T12:29:49;104.10;;;37.73;;
15082;SDS011;7640;53.116;6.878;2022-12-17T12:32:48;100.83;;;37.33;;
15082;SDS011;7640;53.116;6.878;2022-12-17T12:35:42;109.73;;;40.93;;
15082;SDS011;7640;53.116;6.878;2022-12-17T12:38:29;96.00;;;36.40;;
15082;SDS011;7640;53.116;6.878;2022-12-17T12:41:36;96.27;;;36.57;;
15082;SDS011;7640;53.116;6.878;2022-12-17T12:44:33;93.50;;;37.63;;
15082;SDS011;7640;53.116;6.878;2022-12-17T12:47:31;91.73;;;37.13;;
15082;SDS011;7640;53.116;6.878;2022-12-17T12:50:31;96.47;;;37.50;;
15082;SDS011;7640;53.116;6.878;2022-12-17T12:53:26;96.10;;;39.37;;
15082;SDS011;7640;53.116;6.878;2022-12-17T12:56:24;94.43;;;36.20;;
15082;SDS011;7640;53.116;6.878;2022-12-17T12:59:20;97.03;;;38.50;;
15082;SDS011;7640;53.116;6.878;2022-12-17T13:02:12;89.97;;;35.83;;
15082;SDS011;7640;53.116;6.878;2022-12-17T13:05:20;88.10;;;35.83;;
15082;SDS011;7640;53.116;6.878;2022-12-17T13:08:03;90.50;;;35.07;;
15082;SDS011;7640;53.116;6.878;2022-12-17T13:10:47;91.97;;;36.00;;
15082;SDS011;7640;53.116;6.878;2022-12-17T13:13:22;91.03;;;37.33;;
15082;SDS011;7640;53.116;6.878;2022-12-17T13:16:00;93.87;;;37.17;;
15082;SDS011;7640;53.116;6.878;2022-12-17T13:18:43;88.00;;;36.90;;
15082;SDS011;7640;53.116;6.878;2022-12-17T13:21:22;90.90;;;36.30;;
15082;SDS011;7640;53.116;6.878;2022-12-17T13:23:56;86.73;;;36.00;;
15082;SDS011;7640;53.116;6.878;2022-12-17T13:26:29;93.10;;;37.07;;
15082;SDS011;7640;53.116;6.878;2022-12-17T13:29:11;101.03;;;38.47;;
15082;SDS011;7640;53.116;6.878;2022-12-17T13:31:56;92.57;;;37.70;;
15082;SDS011;7640;53.116;6.878;2022-12-17T13:34:45;89.13;;;35.97;;
15082;SDS011;7640;53.116;6.878;2022-12-17T13:37:35;94.43;;;37.33;;
15082;SDS011;7640;53.116;6.878;2022-12-17T13:40:15;95.47;;;35.63;;
15082;SDS011;7640;53.116;6.878;2022-12-17T13:42:56;95.10;;;35.30;;
15082;SDS011;7640;53.116;6.878;2022-12-17T13:45:25;91.50;;;37.17;;
15082;SDS011;7640;53.116;6.878;2022-12-17T13:47:54;86.60;;;34.57;;
15082;SDS011;7640;53.116;6.878;2022-12-17T13:50:26;90.23;;;32.57;;
15082;SDS011;7640;53.116;6.878;2022-12-17T13:53:07;96.87;;;38.10;;
15082;SDS011;7640;53.116;6.878;2022-12-17T13:55:37;89.00;;;34.90;;
15082;SDS011;7640;53.116;6.878;2022-12-17T13:58:17;87.30;;;35.17;;
15082;SDS011;7640;53.116;6.878;2022-12-17T14:00:49;88.63;;;34.60;;
15082;SDS011;7640;53.116;6.878;2022-12-17T14:03:19;89.60;;;35.67;;
15082;SDS011;7640;53.116;6.878;2022-12-17T14:06:09;81.03;;;34.23;;
15082;SDS011;7640;53.116;6.878;2022-12-17T14:08:38;87.27;;;35.73;;
15082;SDS011;7640;53.116;6.878;2022-12-17T14:11:09;92.43;;;35.73;;
15082;SDS011;7640;53.116;6.878;2022-12-17T14:13:56;87.37;;;34.10;;
15082;SDS011;7640;53.116;6.878;2022-12-17T14:16:25;84.53;;;33.30;;
15082;SDS011;7640;53.116;6.878;2022-12-17T14:18:54;86.67;;;33.90;;
15082;SDS011;7640;53.116;6.878;2022-12-17T14:21:25;84.07;;;33.47;;
15082;SDS011;7640;53.116;6.878;2022-12-17T14:23:54;82.67;;;32.87;;
15082;SDS011;7640;53.116;6.878;2022-12-17T14:26:25;81.97;;;32.53;;
15082;SDS011;7640;53.116;6.878;2022-12-17T14:28:53;87.17;;;32.93;;
15082;SDS011;7640;53.116;6.878;2022-12-17T14:31:23;79.97;;;30.40;;
15082;SDS011;7640;53.116;6.878;2022-12-17T14:34:01;82.50;;;33.43;;
15082;SDS011;7640;53.116;6.878;2022-12-17T14:36:33;87.37;;;34.20;;
15082;SDS011;7640;53.116;6.878;2022-12-17T14:39:05;89.93;;;33.47;;
15082;SDS011;7640;53.116;6.878;2022-12-17T14:41:46;76.53;;;29.27;;
15082;SDS011;7640;53.116;6.878;2022-12-17T14:44:32;83.37;;;34.30;;
15082;SDS011;7640;53.116;6.878;2022-12-17T14:47:10;87.90;;;33.60;;
15082;SDS011;7640;53.116;6.878;2022-12-17T14:49:46;95.80;;;35.50;;
15082;SDS011;7640;53.116;6.878;2022-12-17T14:52:26;84.43;;;33.97;;
15082;SDS011;7640;53.116;6.878;2022-12-17T14:57:50;89.10;;;35.27;;
15082;SDS011;7640;53.116;6.878;2022-12-17T15:00:20;86.47;;;32.93;;
15082;SDS011;7640;53.116;6.878;2022-12-17T15:02:49;77.90;;;29.23;;
15082;SDS011;7640;53.116;6.878;2022-12-17T15:05:21;85.50;;;32.00;;
15082;SDS011;7640;53.116;6.878;2022-12-17T15:07:49;89.33;;;34.23;;
15082;SDS011;7640;53.116;6.878;2022-12-17T15:10:19;84.60;;;32.30;;
15082;SDS011;7640;53.116;6.878;2022-12-17T15:12:48;77.10;;;31.07;;
15082;SDS011;7640;53.116;6.878;2022-12-17T15:15:19;82.20;;;33.63;;
15082;SDS011;7640;53.116;6.878;2022-12-17T15:17:47;87.93;;;32.73;;
15082;SDS011;7640;53.116;6.878;2022-12-17T15:20:16;87.80;;;33.63;;
15082;SDS011;7640;53.116;6.878;2022-12-17T15:22:46;91.63;;;34.13;;
15082;SDS011;7640;53.116;6.878;2022-12-17T15:25:15;87.43;;;32.93;;
15082;SDS011;7640;53.116;6.878;2022-12-17T15:27:45;96.70;;;32.90;;
15082;SDS011;7640;53.116;6.878;2022-12-17T15:30:14;92.30;;;31.63;;
15082;SDS011;7640;53.116;6.878;2022-12-17T15:32:45;92.80;;;34.23;;
15082;SDS011;7640;53.116;6.878;2022-12-17T15:35:14;92.83;;;30.37;;
15082;SDS011;7640;53.116;6.878;2022-12-17T15:37:42;90.03;;;32.43;;
15082;SDS011;7640;53.116;6.878;2022-12-17T15:40:10;90.27;;;31.70;;
15082;SDS011;7640;53.116;6.878;2022-12-17T15:42:39;103.87;;;34.97;;
15082;SDS011;7640;53.116;6.878;2022-12-17T15:45:31;92.17;;;30.97;;
15082;SDS011;7640;53.116;6.878;2022-12-17T15:48:01;99.13;;;32.87;;
15082;SDS011;7640;53.116;6.878;2022-12-17T15:50:29;94.43;;;31.63;;
15082;SDS011;7640;53.116;6.878;2022-12-17T15:52:58;91.67;;;31.50;;
15082;SDS011;7640;53.116;6.878;2022-12-17T15:55:26;87.20;;;31.13;;
15082;SDS011;7640;53.116;6.878;2022-12-17T15:57:56;101.57;;;30.23;;
15082;SDS011;7640;53.116;6.878;2022-12-17T16:00:26;85.07;;;28.20;;
15082;SDS011;7640;53.116;6.878;2022-12-17T16:02:55;89.07;;;28.70;;
15082;SDS011;7640;53.116;6.878;2022-12-17T16:05:26;95.17;;;30.67;;
15082;SDS011;7640;53.116;6.878;2022-12-17T16:07:54;89.60;;;30.23;;
15082;SDS011;7640;53.116;6.878;2022-12-17T16:10:27;94.67;;;30.00;;
15082;SDS011;7640;53.116;6.878;2022-12-17T16:12:56;90.57;;;27.73;;
15082;SDS011;7640;53.116;6.878;2022-12-17T16:15:24;86.63;;;28.10;;
15082;SDS011;7640;53.116;6.878;2022-12-17T16:17:53;96.30;;;31.17;;
15082;SDS011;7640;53.116;6.878;2022-12-17T16:20:22;92.07;;;30.07;;
15082;SDS011;7640;53.116;6.878;2022-12-17T16:22:52;87.03;;;30.80;;
15082;SDS011;7640;53.116;6.878;2022-12-17T16:25:20;100.57;;;32.53;;
15082;SDS011;7640;53.116;6.878;2022-12-17T16:27:49;104.67;;;32.90;;
15082;SDS011;7640;53.116;6.878;2022-12-17T16:30:17;100.87;;;30.40;;
15082;SDS011;7640;53.116;6.878;2022-12-17T16:32:46;108.80;;;32.40;;
15082;SDS011;7640;53.116;6.878;2022-12-17T16:35:14;99.70;;;30.83;;
15082;SDS011;7640;53.116;6.878;2022-12-17T16:37:42;104.10;;;31.93;;
15082;SDS011;7640;53.116;6.878;2022-12-17T16:40:12;110.43;;;32.60;;
15082;SDS011;7640;53.116;6.878;2022-12-17T16:42:41;95.47;;;32.73;;
15082;SDS011;7640;53.116;6.878;2022-12-17T16:45:09;94.23;;;30.93;;